Kargasok, Russia
Current Conditions -  °F | °C
As of 2:30 PM on Sunday 26 Oct 2014 (Local Time) from USNN Reporting Station
Clear Clear  
Wind Chill: -9°   Ceiling: Unl
Heat Index:   Visibility: 6mi
Dew Point: -2°   Wind: 9mph
Humidity: 72%   Direction: 210°SSW
Pressure: 29.71"   Gusts: NA
Location:  59.06°N, 80.86°E
Report Text: USNN 260730Z 21004MPS CAVOK M15/M19 Q1006 NOSIG RMK QFE75021410265
Loading
Personal Weather Stations






























Interactive Weather Map
Tropical Storm Tracking
New forecast layout! Learn more

10-Day Weather Forecast

Advertisements
Track Severe Weather on mobile